Clayton, Delaware
Current Conditions -  °F | °C
As of 7:58 AM on Sunday 23 Nov 2014 (Local Time) from KDOV Reporting Station
Clear Clear  
Wind Chill: 38°   Ceiling: Unl
Heat Index: 38°   Visibility: 10mi
Dew Point: 27°   Wind: 3mph
Humidity: 64%   Direction: 180°S
Pressure: 30.24"   Gusts: NA
Location:  39.29°N, 75.63°W
Report Text: KDOV 231258Z AUTO 18003KT 10SM CLR 03/M03 A3024 RMK AO2 SLP244 T00321030
Loading
Personal Weather Stations






























Interactive Weather Map New forecast layout! Learn more

10-Day Weather Forecast

Advertisements
Track Severe Weather on mobile